sensor_id;sensor_type;location;lat;lon;timestamp;temperature;humidity
14749;DHT22;7466;53.574;9.976;2023-03-01T00:01:11;0.90;54.10
14749;DHT22;7466;53.574;9.976;2023-03-01T00:03:47;0.80;55.60
14749;DHT22;7466;53.574;9.976;2023-03-01T00:06:14;0.80;56.70
14749;DHT22;7466;53.574;9.976;2023-03-01T00:08:42;0.90;58.40
14749;DHT22;7466;53.574;9.976;2023-03-01T00:11:12;0.90;57.70
14749;DHT22;7466;53.574;9.976;2023-03-01T00:13:39;0.90;56.60
14749;DHT22;7466;53.574;9.976;2023-03-01T00:16:16;0.90;57.70
14749;DHT22;7466;53.574;9.976;2023-03-01T00:18:46;1.00;59.50
14749;DHT22;7466;53.574;9.976;2023-03-01T00:21:13;1.00;68.30
14749;DHT22;7466;53.574;9.976;2023-03-01T00:23:40;1.00;64.10
14749;DHT22;7466;53.574;9.976;2023-03-01T00:26:09;1.00;70.00
14749;DHT22;7466;53.574;9.976;2023-03-01T00:28:37;0.90;68.80
14749;DHT22;7466;53.574;9.976;2023-03-01T00:31:04;0.90;67.60
14749;DHT22;7466;53.574;9.976;2023-03-01T00:33:31;1.00;69.90
14749;DHT22;7466;53.574;9.976;2023-03-01T00:36:00;0.90;68.50
14749;DHT22;7466;53.574;9.976;2023-03-01T00:38:35;0.90;68.80
14749;DHT22;7466;53.574;9.976;2023-03-01T00:41:05;0.90;70.10
14749;DHT22;7466;53.574;9.976;2023-03-01T00:43:32;0.90;70.00
14749;DHT22;7466;53.574;9.976;2023-03-01T00:46:17;0.80;72.20
14749;DHT22;7466;53.574;9.976;2023-03-01T00:48:44;0.80;71.40
14749;DHT22;7466;53.574;9.976;2023-03-01T00:51:14;0.90;75.60
14749;DHT22;7466;53.574;9.976;2023-03-01T00:53:42;0.90;70.20
14749;DHT22;7466;53.574;9.976;2023-03-01T00:56:10;0.90;69.40
14749;DHT22;7466;53.574;9.976;2023-03-01T00:58:38;0.90;70.20
14749;DHT22;7466;53.574;9.976;2023-03-01T01:01:08;0.80;69.80
14749;DHT22;7466;53.574;9.976;2023-03-01T01:03:44;0.80;71.10
14749;DHT22;7466;53.574;9.976;2023-03-01T01:06:18;0.70;73.10
14749;DHT22;7466;53.574;9.976;2023-03-01T01:08:46;0.70;73.10
14749;DHT22;7466;53.574;9.976;2023-03-01T01:11:14;0.70;74.20
14749;DHT22;7466;53.574;9.976;2023-03-01T01:13:50;0.80;78.30
14749;DHT22;7466;53.574;9.976;2023-03-01T01:16:19;0.80;75.20
14749;DHT22;7466;53.574;9.976;2023-03-01T01:18:47;0.80;74.80
14749;DHT22;7466;53.574;9.976;2023-03-01T01:21:15;0.80;69.00
14749;DHT22;7466;53.574;9.976;2023-03-01T01:23:44;0.90;64.90
14749;DHT22;7466;53.574;9.976;2023-03-01T01:26:14;0.80;57.50
14749;DHT22;7466;53.574;9.976;2023-03-01T01:28:43;0.80;56.80
14749;DHT22;7466;53.574;9.976;2023-03-01T01:31:10;0.70;57.10
14749;DHT22;7466;53.574;9.976;2023-03-01T01:33:37;0.70;58.50
14749;DHT22;7466;53.574;9.976;2023-03-01T01:36:05;0.70;58.00
14749;DHT22;7466;53.574;9.976;2023-03-01T01:38:32;0.70;59.90
14749;DHT22;7466;53.574;9.976;2023-03-01T01:41:01;0.60;63.30
14749;DHT22;7466;53.574;9.976;2023-03-01T01:43:30;0.70;67.80
14749;DHT22;7466;53.574;9.976;2023-03-01T01:46:21;0.70;74.50
14749;DHT22;7466;53.574;9.976;2023-03-01T01:48:52;0.70;84.30
14749;DHT22;7466;53.574;9.976;2023-03-01T01:51:25;0.70;86.00
14749;DHT22;7466;53.574;9.976;2023-03-01T01:53:58;0.70;84.40
14749;DHT22;7466;53.574;9.976;2023-03-01T01:56:29;0.70;86.00
14749;DHT22;7466;53.574;9.976;2023-03-01T01:58:56;0.70;84.10
14749;DHT22;7466;53.574;9.976;2023-03-01T02:01:24;0.70;86.00
14749;DHT22;7466;53.574;9.976;2023-03-01T02:03:52;0.70;87.10
14749;DHT22;7466;53.574;9.976;2023-03-01T02:06:21;0.70;89.00
14749;DHT22;7466;53.574;9.976;2023-03-01T02:08:49;0.80;90.10
14749;DHT22;7466;53.574;9.976;2023-03-01T02:11:18;0.80;87.80
14749;DHT22;7466;53.574;9.976;2023-03-01T02:13:51;0.90;86.30
14749;DHT22;7466;53.574;9.976;2023-03-01T02:16:20;0.80;87.40
14749;DHT22;7466;53.574;9.976;2023-03-01T02:18:53;0.80;87.00
14749;DHT22;7466;53.574;9.976;2023-03-01T02:21:40;0.80;84.80
14749;DHT22;7466;53.574;9.976;2023-03-01T02:24:19;0.70;81.00
14749;DHT22;7466;53.574;9.976;2023-03-01T02:26:53;0.70;78.60
14749;DHT22;7466;53.574;9.976;2023-03-01T02:29:24;0.70;78.90
14749;DHT22;7466;53.574;9.976;2023-03-01T02:31:54;0.70;78.00
14749;DHT22;7466;53.574;9.976;2023-03-01T02:34:24;0.70;78.80
14749;DHT22;7466;53.574;9.976;2023-03-01T02:36:55;0.70;83.20
14749;DHT22;7466;53.574;9.976;2023-03-01T02:39:26;0.70;86.80
14749;DHT22;7466;53.574;9.976;2023-03-01T02:41:55;0.70;88.40
14749;DHT22;7466;53.574;9.976;2023-03-01T02:44:24;0.80;87.60
14749;DHT22;7466;53.574;9.976;2023-03-01T02:46:53;0.80;87.00
14749;DHT22;7466;53.574;9.976;2023-03-01T02:49:23;0.80;83.70
14749;DHT22;7466;53.574;9.976;2023-03-01T02:52:21;0.80;81.40
14749;DHT22;7466;53.574;9.976;2023-03-01T02:54:54;0.90;80.40
14749;DHT22;7466;53.574;9.976;2023-03-01T02:57:25;0.80;79.10
14749;DHT22;7466;53.574;9.976;2023-03-01T02:59:55;0.80;73.80
14749;DHT22;7466;53.574;9.976;2023-03-01T03:02:24;0.70;71.50
14749;DHT22;7466;53.574;9.976;2023-03-01T03:05:04;0.70;69.80
14749;DHT22;7466;53.574;9.976;2023-03-01T03:07:33;0.60;67.50
14749;DHT22;7466;53.574;9.976;2023-03-01T03:10:00;0.60;69.60
14749;DHT22;7466;53.574;9.976;2023-03-01T03:12:27;0.60;69.60
14749;DHT22;7466;53.574;9.976;2023-03-01T03:14:56;0.50;71.70
14749;DHT22;7466;53.574;9.976;2023-03-01T03:17:23;0.50;72.40
14749;DHT22;7466;53.574;9.976;2023-03-01T03:19:49;0.50;74.10
14749;DHT22;7466;53.574;9.976;2023-03-01T03:22:17;0.50;72.80
14749;DHT22;7466;53.574;9.976;2023-03-01T03:24:43;0.50;63.90
14749;DHT22;7466;53.574;9.976;2023-03-01T03:27:10;0.60;50.40
14749;DHT22;7466;53.574;9.976;2023-03-01T03:29:37;0.60;48.20
14749;DHT22;7466;53.574;9.976;2023-03-01T03:32:08;0.60;47.60
14749;DHT22;7466;53.574;9.976;2023-03-01T03:34:35;0.70;45.20
14749;DHT22;7466;53.574;9.976;2023-03-01T03:37:02;0.70;38.20
14749;DHT22;7466;53.574;9.976;2023-03-01T03:39:29;0.80;37.40
14749;DHT22;7466;53.574;9.976;2023-03-01T03:42:00;0.80;36.60
14749;DHT22;7466;53.574;9.976;2023-03-01T03:44:27;0.90;34.70
14749;DHT22;7466;53.574;9.976;2023-03-01T03:46:55;0.90;33.60
14749;DHT22;7466;53.574;9.976;2023-03-01T03:49:23;1.00;27.50
14749;DHT22;7466;53.574;9.976;2023-03-01T03:51:50;1.00;24.80
14749;DHT22;7466;53.574;9.976;2023-03-01T03:54:17;1.00;20.70
14749;DHT22;7466;53.574;9.976;2023-03-01T03:56:44;1.10;20.50
14749;DHT22;7466;53.574;9.976;2023-03-01T03:59:11;1.10;16.90
14749;DHT22;7466;53.574;9.976;2023-03-01T04:01:38;1.10;9.40
14749;DHT22;7466;53.574;9.976;2023-03-01T04:04:04;1.20;10.30
14749;DHT22;7466;53.574;9.976;2023-03-01T04:06:34;1.20;8.90
14749;DHT22;7466;53.574;9.976;2023-03-01T04:09:01;1.20;7.90
14749;DHT22;7466;53.574;9.976;2023-03-01T04:11:28;1.20;8.70
14749;DHT22;7466;53.574;9.976;2023-03-01T04:13:57;1.30;9.60
14749;DHT22;7466;53.574;9.976;2023-03-01T04:16:26;1.30;10.30
14749;DHT22;7466;53.574;9.976;2023-03-01T04:18:53;1.40;10.00
14749;DHT22;7466;53.574;9.976;2023-03-01T04:21:26;1.40;1.90
14749;DHT22;7466;53.574;9.976;2023-03-01T04:23:54;1.40;1.00
14749;DHT22;7466;53.574;9.976;2023-03-01T04:26:21;1.40;1.00
14749;DHT22;7466;53.574;9.976;2023-03-01T04:28:48;1.50;1.00
14749;DHT22;7466;53.574;9.976;2023-03-01T04:31:17;1.50;1.00
14749;DHT22;7466;53.574;9.976;2023-03-01T04:33:48;1.60;1.00
14749;DHT22;7466;53.574;9.976;2023-03-01T04:36:18;1.60;1.00
14749;DHT22;7466;53.574;9.976;2023-03-01T04:38:46;1.60;1.00
14749;DHT22;7466;53.574;9.976;2023-03-01T04:41:16;1.60;1.00
14749;DHT22;7466;53.574;9.976;2023-03-01T04:43:44;1.60;1.00
14749;DHT22;7466;53.574;9.976;2023-03-01T04:46:13;1.70;1.00
14749;DHT22;7466;53.574;9.976;2023-03-01T04:48:41;1.60;1.00
14749;DHT22;7466;53.574;9.976;2023-03-01T04:51:08;1.70;1.00
14749;DHT22;7466;53.574;9.976;2023-03-01T04:53:39;1.70;1.00
14749;DHT22;7466;53.574;9.976;2023-03-01T04:56:06;1.70;1.00
14749;DHT22;7466;53.574;9.976;2023-03-01T04:58:35;1.70;1.00
14749;DHT22;7466;53.574;9.976;2023-03-01T05:01:08;1.70;1.00
14749;DHT22;7466;53.574;9.976;2023-03-01T05:03:41;1.80;1.00
14749;DHT22;7466;53.574;9.976;2023-03-01T05:06:08;1.80;1.00
14749;DHT22;7466;53.574;9.976;2023-03-01T05:08:36;1.80;1.00
14749;DHT22;7466;53.574;9.976;2023-03-01T05:11:03;1.80;1.00
14749;DHT22;7466;53.574;9.976;2023-03-01T05:13:30;1.80;1.00
14749;DHT22;7466;53.574;9.976;2023-03-01T05:16:00;1.90;1.00
14749;DHT22;7466;53.574;9.976;2023-03-01T05:18:29;1.90;1.00
14749;DHT22;7466;53.574;9.976;2023-03-01T05:21:02;2.00;1.00
14749;DHT22;7466;53.574;9.976;2023-03-01T05:23:29;2.00;1.00
14749;DHT22;7466;53.574;9.976;2023-03-01T05:25:57;2.00;1.00
14749;DHT22;7466;53.574;9.976;2023-03-01T05:28:25;2.00;1.00
14749;DHT22;7466;53.574;9.976;2023-03-01T05:30:53;2.00;1.00
14749;DHT22;7466;53.574;9.976;2023-03-01T05:33:22;2.00;1.00
14749;DHT22;7466;53.574;9.976;2023-03-01T05:35:49;2.00;1.00
14749;DHT22;7466;53.574;9.976;2023-03-01T05:38:17;2.00;1.00
14749;DHT22;7466;53.574;9.976;2023-03-01T05:40:46;2.10;1.00
14749;DHT22;7466;53.574;9.976;2023-03-01T05:43:14;2.10;1.00
14749;DHT22;7466;53.574;9.976;2023-03-01T05:45:42;2.10;1.00
14749;DHT22;7466;53.574;9.976;2023-03-01T05:48:09;2.10;1.00
14749;DHT22;7466;53.574;9.976;2023-03-01T05:50:39;2.10;1.00
14749;DHT22;7466;53.574;9.976;2023-03-01T05:53:10;2.10;1.00
14749;DHT22;7466;53.574;9.976;2023-03-01T05:55:37;2.20;1.00
14749;DHT22;7466;53.574;9.976;2023-03-01T05:58:07;2.20;1.00
14749;DHT22;7466;53.574;9.976;2023-03-01T06:00:34;2.20;1.00
14749;DHT22;7466;53.574;9.976;2023-03-01T06:03:01;2.20;1.00
14749;DHT22;7466;53.574;9.976;2023-03-01T06:05:28;2.20;1.00
14749;DHT22;7466;53.574;9.976;2023-03-01T06:07:58;2.20;1.00
14749;DHT22;7466;53.574;9.976;2023-03-01T06:10:29;2.20;1.00
14749;DHT22;7466;53.574;9.976;2023-03-01T06:12:56;2.20;1.00
14749;DHT22;7466;53.574;9.976;2023-03-01T06:15:23;2.20;1.00
14749;DHT22;7466;53.574;9.976;2023-03-01T06:18:05;2.20;1.00
14749;DHT22;7466;53.574;9.976;2023-03-01T06:20:32;2.20;1.00
14749;DHT22;7466;53.574;9.976;2023-03-01T06:23:00;2.10;1.00
14749;DHT22;7466;53.574;9.976;2023-03-01T06:25:27;2.10;1.00
14749;DHT22;7466;53.574;9.976;2023-03-01T06:27:55;2.10;1.00
14749;DHT22;7466;53.574;9.976;2023-03-01T06:30:23;2.10;1.00
14749;DHT22;7466;53.574;9.976;2023-03-01T06:32:51;2.10;1.00
14749;DHT22;7466;53.574;9.976;2023-03-01T06:35:19;2.10;1.00
14749;DHT22;7466;53.574;9.976;2023-03-01T06:37:47;2.10;1.00
14749;DHT22;7466;53.574;9.976;2023-03-01T06:40:20;2.20;1.00
14749;DHT22;7466;53.574;9.976;2023-03-01T06:42:49;2.20;1.00
14749;DHT22;7466;53.574;9.976;2023-03-01T06:45:23;2.20;1.00
14749;DHT22;7466;53.574;9.976;2023-03-01T06:47:51;2.30;1.00
14749;DHT22;7466;53.574;9.976;2023-03-01T06:50:18;2.30;1.00
14749;DHT22;7466;53.574;9.976;2023-03-01T06:52:47;2.30;1.00
14749;DHT22;7466;53.574;9.976;2023-03-01T06:55:14;2.40;1.00
14749;DHT22;7466;53.574;9.976;2023-03-01T06:57:42;2.40;1.00
14749;DHT22;7466;53.574;9.976;2023-03-01T07:00:10;2.50;1.00
14749;DHT22;7466;53.574;9.976;2023-03-01T07:02:37;2.50;1.00
14749;DHT22;7466;53.574;9.976;2023-03-01T07:05:04;2.50;1.00
14749;DHT22;7466;53.574;9.976;2023-03-01T07:07:31;2.60;1.00
14749;DHT22;7466;53.574;9.976;2023-03-01T07:09:58;2.70;1.00
14749;DHT22;7466;53.574;9.976;2023-03-01T07:12:25;2.70;1.00
14749;DHT22;7466;53.574;9.976;2023-03-01T07:14:53;2.70;1.00
14749;DHT22;7466;53.574;9.976;2023-03-01T07:17:22;2.80;1.00
14749;DHT22;7466;53.574;9.976;2023-03-01T07:19:49;2.90;1.00
14749;DHT22;7466;53.574;9.976;2023-03-01T07:22:16;3.00;1.00
14749;DHT22;7466;53.574;9.976;2023-03-01T07:24:43;3.10;1.00
14749;DHT22;7466;53.574;9.976;2023-03-01T07:27:12;3.10;1.00
14749;DHT22;7466;53.574;9.976;2023-03-01T07:29:39;3.00;1.00
14749;DHT22;7466;53.574;9.976;2023-03-01T07:32:11;3.00;1.00
14749;DHT22;7466;53.574;9.976;2023-03-01T07:34:38;3.10;1.00
14749;DHT22;7466;53.574;9.976;2023-03-01T07:37:07;3.10;1.00
14749;DHT22;7466;53.574;9.976;2023-03-01T07:39:47;3.20;1.00
14749;DHT22;7466;53.574;9.976;2023-03-01T07:42:14;3.40;1.00
14749;DHT22;7466;53.574;9.976;2023-03-01T07:44:41;3.40;1.00
14749;DHT22;7466;53.574;9.976;2023-03-01T07:47:08;3.40;1.00
14749;DHT22;7466;53.574;9.976;2023-03-01T07:49:36;3.50;1.00
14749;DHT22;7466;53.574;9.976;2023-03-01T07:52:03;3.50;1.00
14749;DHT22;7466;53.574;9.976;2023-03-01T07:54:32;3.50;1.00
14749;DHT22;7466;53.574;9.976;2023-03-01T07:56:59;3.30;1.00
14749;DHT22;7466;53.574;9.976;2023-03-01T07:59:26;3.30;1.00
14749;DHT22;7466;53.574;9.976;2023-03-01T08:01:54;3.50;1.00
14749;DHT22;7466;53.574;9.976;2023-03-01T08:04:21;3.40;1.00
14749;DHT22;7466;53.574;9.976;2023-03-01T08:06:51;3.50;1.00
14749;DHT22;7466;53.574;9.976;2023-03-01T08:09:18;3.60;1.00
14749;DHT22;7466;53.574;9.976;2023-03-01T08:11:45;3.70;1.00
14749;DHT22;7466;53.574;9.976;2023-03-01T08:14:12;3.70;1.00
14749;DHT22;7466;53.574;9.976;2023-03-01T08:16:39;3.80;1.00
14749;DHT22;7466;53.574;9.976;2023-03-01T08:19:11;3.60;1.00
14749;DHT22;7466;53.574;9.976;2023-03-01T08:21:39;3.70;1.00
14749;DHT22;7466;53.574;9.976;2023-03-01T08:24:08;3.80;1.00
14749;DHT22;7466;53.574;9.976;2023-03-01T08:26:36;4.00;1.00
14749;DHT22;7466;53.574;9.976;2023-03-01T08:29:03;4.10;1.00
14749;DHT22;7466;53.574;9.976;2023-03-01T08:31:32;4.30;1.00
14749;DHT22;7466;53.574;9.976;2023-03-01T08:34:04;4.40;1.00
14749;DHT22;7466;53.574;9.976;2023-03-01T08:36:35;4.50;1.00
14749;DHT22;7466;53.574;9.976;2023-03-01T08:39:03;4.50;1.00
14749;DHT22;7466;53.574;9.976;2023-03-01T08:41:32;4.60;1.00
14749;DHT22;7466;53.574;9.976;2023-03-01T08:43:58;4.70;1.00
14749;DHT22;7466;53.574;9.976;2023-03-01T08:46:26;4.90;1.00
14749;DHT22;7466;53.574;9.976;2023-03-01T08:48:56;5.00;1.00
14749;DHT22;7466;53.574;9.976;2023-03-01T08:51:24;5.00;1.00
14749;DHT22;7466;53.574;9.976;2023-03-01T08:53:51;5.00;1.00
14749;DHT22;7466;53.574;9.976;2023-03-01T08:56:22;5.30;1.00
14749;DHT22;7466;53.574;9.976;2023-03-01T08:58:50;5.50;1.00
14749;DHT22;7466;53.574;9.976;2023-03-01T09:01:18;5.60;1.00
14749;DHT22;7466;53.574;9.976;2023-03-01T09:03:46;5.70;1.00
14749;DHT22;7466;53.574;9.976;2023-03-01T09:06:13;6.00;1.00
14749;DHT22;7466;53.574;9.976;2023-03-01T09:08:42;5.00;1.00
14749;DHT22;7466;53.574;9.976;2023-03-01T09:11:12;5.00;1.00
14749;DHT22;7466;53.574;9.976;2023-03-01T09:13:41;4.70;1.00
14749;DHT22;7466;53.574;9.976;2023-03-01T09:16:11;4.70;1.00
14749;DHT22;7466;53.574;9.976;2023-03-01T09:18:38;4.80;1.00
14749;DHT22;7466;53.574;9.976;2023-03-01T09:21:07;4.90;1.00
14749;DHT22;7466;53.574;9.976;2023-03-01T09:23:35;5.10;1.00
14749;DHT22;7466;53.574;9.976;2023-03-01T09:26:04;5.10;1.00
14749;DHT22;7466;53.574;9.976;2023-03-01T09:28:45;5.40;1.00
14749;DHT22;7466;53.574;9.976;2023-03-01T09:31:15;5.50;1.00
14749;DHT22;7466;53.574;9.976;2023-03-01T09:33:46;5.60;1.00
14749;DHT22;7466;53.574;9.976;2023-03-01T09:36:15;5.50;1.00
14749;DHT22;7466;53.574;9.976;2023-03-01T09:38:43;5.30;1.00
14749;DHT22;7466;53.574;9.976;2023-03-01T09:41:18;5.50;1.00
14749;DHT22;7466;53.574;9.976;2023-03-01T09:43:49;5.40;1.00
14749;DHT22;7466;53.574;9.976;2023-03-01T09:46:22;5.40;1.00
14749;DHT22;7466;53.574;9.976;2023-03-01T09:48:52;5.30;1.00
14749;DHT22;7466;53.574;9.976;2023-03-01T09:51:26;5.30;1.00
14749;DHT22;7466;53.574;9.976;2023-03-01T09:53:57;5.30;1.00
14749;DHT22;7466;53.574;9.976;2023-03-01T09:56:32;5.10;1.00
14749;DHT22;7466;53.574;9.976;2023-03-01T09:59:05;5.20;1.00
14749;DHT22;7466;53.574;9.976;2023-03-01T10:01:44;5.00;1.00
14749;DHT22;7466;53.574;9.976;2023-03-01T10:04:26;5.60;1.00
14749;DHT22;7466;53.574;9.976;2023-03-01T10:07:10;5.20;1.00
14749;DHT22;7466;53.574;9.976;2023-03-01T10:09:43;5.30;1.00
14749;DHT22;7466;53.574;9.976;2023-03-01T10:12:16;5.10;1.00
14749;DHT22;7466;53.574;9.976;2023-03-01T10:14:50;5.50;1.00
14749;DHT22;7466;53.574;9.976;2023-03-01T10:17:26;5.70;1.00
14749;DHT22;7466;53.574;9.976;2023-03-01T10:19:55;5.90;1.00
14749;DHT22;7466;53.574;9.976;2023-03-01T10:22:28;6.30;1.00
14749;DHT22;7466;53.574;9.976;2023-03-01T10:24:58;6.90;1.00
14749;DHT22;7466;53.574;9.976;2023-03-01T10:27:26;7.00;1.00
14749;DHT22;7466;53.574;9.976;2023-03-01T10:30:01;6.70;1.00
14749;DHT22;7466;53.574;9.976;2023-03-01T10:32:38;6.40;1.00
14749;DHT22;7466;53.574;9.976;2023-03-01T10:35:16;6.30;1.00
14749;DHT22;7466;53.574;9.976;2023-03-01T10:37:56;6.80;1.00
14749;DHT22;7466;53.574;9.976;2023-03-01T10:40:26;6.80;1.00
14749;DHT22;7466;53.574;9.976;2023-03-01T10:42:53;7.50;1.00
14749;DHT22;7466;53.574;9.976;2023-03-01T10:45:31;7.00;1.00
14749;DHT22;7466;53.574;9.976;2023-03-01T10:48:22;6.60;1.00
14749;DHT22;7466;53.574;9.976;2023-03-01T10:51:05;6.80;1.00
14749;DHT22;7466;53.574;9.976;2023-03-01T10:53:35;7.00;1.00
14749;DHT22;7466;53.574;9.976;2023-03-01T10:56:06;7.70;1.00
14749;DHT22;7466;53.574;9.976;2023-03-01T10:58:35;8.20;1.00
14749;DHT22;7466;53.574;9.976;2023-03-01T11:01:04;6.80;1.00
14749;DHT22;7466;53.574;9.976;2023-03-01T11:03:35;7.40;1.00
14749;DHT22;7466;53.574;9.976;2023-03-01T11:06:05;8.20;1.00
14749;DHT22;7466;53.574;9.976;2023-03-01T11:08:38;7.90;1.00
14749;DHT22;7466;53.574;9.976;2023-03-01T11:11:29;8.60;1.00
14749;DHT22;7466;53.574;9.976;2023-03-01T11:13:59;9.30;1.00
14749;DHT22;7466;53.574;9.976;2023-03-01T11:16:32;8.80;1.00
14749;DHT22;7466;53.574;9.976;2023-03-01T11:19:13;9.80;1.00
14749;DHT22;7466;53.574;9.976;2023-03-01T11:21:44;8.60;1.00
14749;DHT22;7466;53.574;9.976;2023-03-01T11:24:17;8.90;1.00
14749;DHT22;7466;53.574;9.976;2023-03-01T11:26:47;9.70;1.00
14749;DHT22;7466;53.574;9.976;2023-03-01T11:29:26;10.60;1.00
14749;DHT22;7466;53.574;9.976;2023-03-01T11:31:57;10.90;1.00
14749;DHT22;7466;53.574;9.976;2023-03-01T11:34:36;11.30;99.90
14749;DHT22;7466;53.574;9.976;2023-03-01T11:37:14;10.70;99.90
14749;DHT22;7466;53.574;9.976;2023-03-01T11:39:49;10.80;1.00
14749;DHT22;7466;53.574;9.976;2023-03-01T11:42:19;11.70;99.90
14749;DHT22;7466;53.574;9.976;2023-03-01T11:44:49;11.30;99.90
14749;DHT22;7466;53.574;9.976;2023-03-01T11:47:29;9.80;1.00
14749;DHT22;7466;53.574;9.976;2023-03-01T11:50:16;11.10;1.00
14749;DHT22;7466;53.574;9.976;2023-03-01T11:52:56;11.10;99.90
14749;DHT22;7466;53.574;9.976;2023-03-01T11:55:36;11.50;99.90
14749;DHT22;7466;53.574;9.976;2023-03-01T12:01:16;12.90;1.00
14749;DHT22;7466;53.574;9.976;2023-03-01T12:04:24;11.50;99.90
14749;DHT22;7466;53.574;9.976;2023-03-01T12:07:02;10.50;99.90
14749;DHT22;7466;53.574;9.976;2023-03-01T12:09:38;11.00;99.90
14749;DHT22;7466;53.574;9.976;2023-03-01T12:12:30;11.90;99.90
14749;DHT22;7466;53.574;9.976;2023-03-01T12:15:19;12.80;99.90
14749;DHT22;7466;53.574;9.976;2023-03-01T12:17:58;12.70;1.00
14749;DHT22;7466;53.574;9.976;2023-03-01T12:20:36;13.00;1.00
14749;DHT22;7466;53.574;9.976;2023-03-01T12:26:12;10.70;99.90
14749;DHT22;7466;53.574;9.976;2023-03-01T12:29:02;10.90;1.00
14749;DHT22;7466;53.574;9.976;2023-03-01T12:32:04;11.40;1.00
14749;DHT22;7466;53.574;9.976;2023-03-01T12:37:46;10.80;1.00
14749;DHT22;7466;53.574;9.976;2023-03-01T12:40:46;11.60;99.90
14749;DHT22;7466;53.574;9.976;2023-03-01T12:43:25;10.00;1.00
14749;DHT22;7466;53.574;9.976;2023-03-01T12:46:09;9.70;1.00
14749;DHT22;7466;53.574;9.976;2023-03-01T12:48:45;11.70;1.00
14749;DHT22;7466;53.574;9.976;2023-03-01T12:51:17;10.70;1.00
14749;DHT22;7466;53.574;9.976;2023-03-01T12:53:47;10.30;1.00
14749;DHT22;7466;53.574;9.976;2023-03-01T12:56:19;11.10;1.00
14749;DHT22;7466;53.574;9.976;2023-03-01T12:58:55;9.80;1.00
14749;DHT22;7466;53.574;9.976;2023-03-01T13:01:35;10.10;1.00
14749;DHT22;7466;53.574;9.976;2023-03-01T13:04:13;10.20;1.00
14749;DHT22;7466;53.574;9.976;2023-03-01T13:06:47;9.70;1.00
14749;DHT22;7466;53.574;9.976;2023-03-01T13:09:27;10.10;1.00
14749;DHT22;7466;53.574;9.976;2023-03-01T13:11:57;10.30;1.00
14749;DHT22;7466;53.574;9.976;2023-03-01T13:14:45;10.90;1.00
14749;DHT22;7466;53.574;9.976;2023-03-01T13:17:34;10.20;1.00
14749;DHT22;7466;53.574;9.976;2023-03-01T13:20:13;10.10;1.00
14749;DHT22;7466;53.574;9.976;2023-03-01T13:22:41;9.80;1.00
14749;DHT22;7466;53.574;9.976;2023-03-01T13:25:15;9.60;1.00
14749;DHT22;7466;53.574;9.976;2023-03-01T13:27:44;10.20;1.00
14749;DHT22;7466;53.574;9.976;2023-03-01T13:30:38;10.80;1.00
14749;DHT22;7466;53.574;9.976;2023-03-01T13:33:33;10.30;1.00
14749;DHT22;7466;53.574;9.976;2023-03-01T13:36:02;9.50;1.00
14749;DHT22;7466;53.574;9.976;2023-03-01T13:38:55;10.60;1.00
14749;DHT22;7466;53.574;9.976;2023-03-01T13:41:50;10.50;1.00
14749;DHT22;7466;53.574;9.976;2023-03-01T13:44:24;10.50;1.00
14749;DHT22;7466;53.574;9.976;2023-03-01T13:46:55;9.80;1.00
14749;DHT22;7466;53.574;9.976;2023-03-01T13:49:26;10.10;1.00
14749;DHT22;7466;53.574;9.976;2023-03-01T13:51:54;9.50;1.00
14749;DHT22;7466;53.574;9.976;2023-03-01T13:54:26;9.30;1.00
14749;DHT22;7466;53.574;9.976;2023-03-01T13:56:55;9.40;1.00
14749;DHT22;7466;53.574;9.976;2023-03-01T13:59:23;9.80;1.00
14749;DHT22;7466;53.574;9.976;2023-03-01T14:01:53;9.40;1.00
14749;DHT22;7466;53.574;9.976;2023-03-01T14:04:23;10.10;1.00
14749;DHT22;7466;53.574;9.976;2023-03-01T14:06:51;10.00;1.00
14749;DHT22;7466;53.574;9.976;2023-03-01T14:09:20;9.60;1.00
14749;DHT22;7466;53.574;9.976;2023-03-01T14:12:20;9.20;1.00
14749;DHT22;7466;53.574;9.976;2023-03-01T14:14:59;10.20;1.00
14749;DHT22;7466;53.574;9.976;2023-03-01T14:20:20;13.00;99.90
14749;DHT22;7466;53.574;9.976;2023-03-01T14:22:49;12.10;1.00
14749;DHT22;7466;53.574;9.976;2023-03-01T14:25:23;9.50;1.00
14749;DHT22;7466;53.574;9.976;2023-03-01T14:27:57;9.60;1.00
14749;DHT22;7466;53.574;9.976;2023-03-01T14:30:30;8.90;1.00
14749;DHT22;7466;53.574;9.976;2023-03-01T14:32:59;8.60;1.00
14749;DHT22;7466;53.574;9.976;2023-03-01T14:35:28;8.00;1.00
14749;DHT22;7466;53.574;9.976;2023-03-01T14:37:55;7.80;1.00
14749;DHT22;7466;53.574;9.976;2023-03-01T14:40:30;7.90;1.00
14749;DHT22;7466;53.574;9.976;2023-03-01T14:43:23;7.80;1.00
14749;DHT22;7466;53.574;9.976;2023-03-01T14:45:52;7.50;1.00
14749;DHT22;7466;53.574;9.976;2023-03-01T14:48:20;7.50;1.00
14749;DHT22;7466;53.574;9.976;2023-03-01T14:50:50;7.70;1.00
14749;DHT22;7466;53.574;9.976;2023-03-01T14:53:20;7.80;1.00
14749;DHT22;7466;53.574;9.976;2023-03-01T14:55:52;7.40;1.00
14749;DHT22;7466;53.574;9.976;2023-03-01T14:58:21;7.30;1.00
14749;DHT22;7466;53.574;9.976;2023-03-01T15:00:52;7.50;1.00
14749;DHT22;7466;53.574;9.976;2023-03-01T15:03:25;7.40;1.00
14749;DHT22;7466;53.574;9.976;2023-03-01T15:05:53;7.40;1.00
14749;DHT22;7466;53.574;9.976;2023-03-01T15:08:27;7.30;1.00
14749;DHT22;7466;53.574;9.976;2023-03-01T15:11:04;7.40;1.00
14749;DHT22;7466;53.574;9.976;2023-03-01T15:13:35;7.30;1.00
14749;DHT22;7466;53.574;9.976;2023-03-01T15:16:09;7.20;1.00
14749;DHT22;7466;53.574;9.976;2023-03-01T15:18:44;7.20;1.00
14749;DHT22;7466;53.574;9.976;2023-03-01T15:21:17;7.20;1.00
14749;DHT22;7466;53.574;9.976;2023-03-01T15:24:02;7.20;1.00
14749;DHT22;7466;53.574;9.976;2023-03-01T15:26:56;7.20;1.00
14749;DHT22;7466;53.574;9.976;2023-03-01T15:29:29;7.20;1.00
14749;DHT22;7466;53.574;9.976;2023-03-01T15:32:01;7.20;1.00
14749;DHT22;7466;53.574;9.976;2023-03-01T15:34:30;7.10;1.00
14749;DHT22;7466;53.574;9.976;2023-03-01T15:36:58;7.10;1.00
14749;DHT22;7466;53.574;9.976;2023-03-01T15:39:35;7.10;1.00
14749;DHT22;7466;53.574;9.976;2023-03-01T15:42:05;7.10;1.00
14749;DHT22;7466;53.574;9.976;2023-03-01T15:44:34;7.00;1.00
14749;DHT22;7466;53.574;9.976;2023-03-01T15:47:05;7.10;1.00
14749;DHT22;7466;53.574;9.976;2023-03-01T15:49:38;7.00;1.00
14749;DHT22;7466;53.574;9.976;2023-03-01T15:52:12;7.00;1.00
14749;DHT22;7466;53.574;9.976;2023-03-01T15:54:41;6.90;10.80
14749;DHT22;7466;53.574;9.976;2023-03-01T15:57:12;6.90;12.20
14749;DHT22;7466;53.574;9.976;2023-03-01T15:59:40;6.90;11.40
14749;DHT22;7466;53.574;9.976;2023-03-01T16:02:10;6.90;16.20
14749;DHT22;7466;53.574;9.976;2023-03-01T16:04:39;6.90;16.00
14749;DHT22;7466;53.574;9.976;2023-03-01T16:07:06;6.80;23.10
14749;DHT22;7466;53.574;9.976;2023-03-01T16:09:35;6.80;21.80
14749;DHT22;7466;53.574;9.976;2023-03-01T16:12:08;6.80;22.40
14749;DHT22;7466;53.574;9.976;2023-03-01T16:14:36;6.70;21.90
14749;DHT22;7466;53.574;9.976;2023-03-01T16:17:03;6.70;22.70
14749;DHT22;7466;53.574;9.976;2023-03-01T16:19:32;6.60;22.60
14749;DHT22;7466;53.574;9.976;2023-03-01T16:21:59;6.60;24.70
14749;DHT22;7466;53.574;9.976;2023-03-01T16:24:26;6.50;27.30
14749;DHT22;7466;53.574;9.976;2023-03-01T16:26:53;6.50;26.40
14749;DHT22;7466;53.574;9.976;2023-03-01T16:29:22;6.50;25.70
14749;DHT22;7466;53.574;9.976;2023-03-01T16:31:51;6.40;26.40
14749;DHT22;7466;53.574;9.976;2023-03-01T16:34:18;6.40;28.40
14749;DHT22;7466;53.574;9.976;2023-03-01T16:36:48;6.30;28.80
14749;DHT22;7466;53.574;9.976;2023-03-01T16:39:15;6.30;36.00
14749;DHT22;7466;53.574;9.976;2023-03-01T16:41:43;6.20;35.70
14749;DHT22;7466;53.574;9.976;2023-03-01T16:44:10;6.20;45.20
14749;DHT22;7466;53.574;9.976;2023-03-01T16:46:36;6.10;45.00
14749;DHT22;7466;53.574;9.976;2023-03-01T16:49:03;6.10;41.90